Time;durP1;ratioP1;P1;durP2;ratioP2;P2;SDS_P1;SDS_P2;PMS_P1;PMS_P2;Temp;Humidity;BMP_temperature;BMP_pressure;BME280_temperature;BME280_humidity;BME280_pressure;Samples;Min_cycle;Max_cycle;Signal;HPM_P1;HPM_P2
2022/10/17 00:00:55;;;;;;;5.20;4.73;;;;;;;12.69;100.00;149229.72;5092678;28;20602;-58
2022/10/17 00:03:22;;;;;;;5.77;5.40;;;;;;;12.70;100.00;149230.97;5092398;28;20184;-58
2022/10/17 00:05:49;;;;;;;4.40;4.20;;;;;;;12.58;100.00;149200.59;5092383;28;20185;-59
2022/10/17 00:08:17;;;;;;;6.37;5.17;;;;;;;12.63;100.00;149213.25;5092264;28;20197;-58
2022/10/17 00:10:45;;;;;;;4.90;4.47;;;;;;;12.52;100.00;149185.44;5092550;28;20184;-57
2022/10/17 00:13:13;;;;;;;7.53;4.73;;;;;;;12.66;100.00;149220.84;5092577;28;20190;-59
2022/10/17 00:15:43;;;;;;;4.23;4.03;;;;;;;12.61;100.00;149208.19;5092489;28;20180;-58
2022/10/17 00:18:10;;;;;;;4.53;4.23;;;;;;;12.33;100.00;149138.56;5092215;28;20188;-58
2022/10/17 00:20:37;;;;;;;4.90;4.60;;;;;;;12.58;100.00;149200.59;5097613;28;20229;-63
2022/10/17 00:23:04;;;;;;;5.27;4.90;;;;;;;12.50;100.00;149180.34;5112744;28;20601;-58
2022/10/17 00:25:31;;;;;;;5.30;4.97;;;;;;;12.54;100.00;149191.75;5112773;28;20194;-58
2022/10/17 00:27:57;;;;;;;5.77;5.23;;;;;;;12.49;100.00;149177.81;5112873;28;20630;-58
2022/10/17 00:30:24;;;;;;;6.40;5.20;;;;;;;12.41;100.00;149158.81;5112663;28;20205;-58
2022/10/17 00:32:53;;;;;;;5.03;4.67;;;;;;;12.45;100.00;149168.94;5112254;28;20215;-59
2022/10/17 00:35:19;;;;;;;5.63;5.23;;;;;;;12.49;100.00;149177.81;5112595;28;20660;-58
2022/10/17 00:37:46;;;;;;;5.47;5.17;;;;;;;12.34;100.00;149142.41;5112497;28;20278;-58
2022/10/17 00:40:13;;;;;;;5.73;5.33;;;;;;;12.45;100.00;149167.69;5112559;28;20632;-58
2022/10/17 00:42:43;;;;;;;5.27;4.97;;;;;;;12.35;100.00;149143.63;5112193;28;20213;-58
2022/10/17 00:45:18;;;;;;;5.33;5.03;;;;;;;12.45;100.00;149167.69;5112194;28;20190;-59
2022/10/17 00:47:48;;;;;;;5.73;5.30;;;;;;;12.46;100.00;149170.22;5111876;28;20247;-58
2022/10/17 00:50:18;;;;;;;7.83;5.23;;;;;;;12.64;100.00;149215.81;5112421;28;20187;-59
2022/10/17 00:52:46;;;;;;;5.23;5.03;;;;;;;12.78;100.00;149251.22;5112344;28;20189;-59
2022/10/17 00:55:20;;;;;;;5.57;5.07;;;;;;;12.77;100.00;149249.97;5112341;28;20206;-59
2022/10/17 00:57:47;;;;;;;4.97;4.57;;;;;;;12.57;100.00;149198.06;5112324;28;20183;-59
2022/10/17 01:00:15;;;;;;;5.43;5.03;;;;;;;12.82;100.00;149262.63;5112314;28;20672;-58
2022/10/17 01:02:42;;;;;;;5.23;4.33;;;;;;;12.82;100.00;149261.34;5111995;28;20210;-58
2022/10/17 01:05:10;;;;;;;5.47;5.07;;;;;;;12.86;100.00;149271.50;5112126;28;20188;-58
2022/10/17 01:07:41;;;;;;;4.83;4.43;;;;;;;12.85;100.00;149267.72;5112325;28;20187;-58
2022/10/17 01:10:09;;;;;;;4.80;4.47;;;;;;;12.82;100.00;149262.63;5112169;28;20179;-58
2022/10/17 01:12:48;;;;;;;5.60;5.30;;;;;;;12.92;100.00;149285.44;5112230;28;20653;-58
2022/10/17 01:15:25;;;;;;;5.67;4.33;;;;;;;12.99;100.00;149304.41;5112246;28;20652;-59
2022/10/17 01:18:01;;;;;;;5.03;4.73;;;;;;;12.96;100.00;149296.84;5112100;28;20550;-57
2022/10/17 01:21:06;;;;;;;4.47;4.27;;;;;;;13.10;100.00;149331.03;5112132;28;20690;-58
2022/10/17 01:24:18;;;;;;;6.97;4.30;;;;;;;13.13;100.00;149339.94;5045027;28;20312;-58
2022/10/17 01:27:01;;;;;;;4.53;4.17;;;;;;;13.10;100.00;149332.38;5111782;28;20194;-59
2022/10/17 01:30:04;;;;;;;5.10;4.80;;;;;;;13.12;100.00;149337.41;5112094;28;20210;-58
2022/10/17 01:32:37;;;;;;;4.33;4.10;;;;;;;13.00;100.00;149305.69;5106766;28;20669;-58
2022/10/17 01:35:10;;;;;;;5.03;4.73;;;;;;;12.96;100.00;149295.56;5112027;28;20641;-58
2022/10/17 01:37:44;;;;;;;4.60;4.23;;;;;;;12.98;100.00;149301.91;5112035;28;20180;-58
2022/10/17 01:40:15;;;;;;;4.27;3.97;;;;;;;13.01;100.00;149309.50;5111676;28;20554;-58
2022/10/17 01:42:51;;;;;;;10.00;4.77;;;;;;;13.08;100.00;149327.22;5111904;28;20203;-57
2022/10/17 01:45:23;;;;;;;5.10;4.60;;;;;;;12.98;100.00;149300.66;5110414;28;20189;-59
2022/10/17 01:47:54;;;;;;;5.10;4.80;;;;;;;12.92;99.46;149285.44;5111906;28;20213;-58
2022/10/17 01:50:26;;;;;;;5.37;4.90;;;;;;;13.07;97.90;149323.44;5111602;28;20183;-58
2022/10/17 01:52:58;;;;;;;6.40;4.70;;;;;;;13.07;98.31;149324.69;5111543;28;20194;-58
2022/10/17 01:55:31;;;;;;;4.87;4.50;;;;;;;12.98;97.65;149300.66;5111814;28;20264;-58
2022/10/17 01:58:03;;;;;;;6.10;5.03;;;;;;;12.77;98.57;149249.97;5111461;28;20188;-58
2022/10/17 02:00:32;;;;;;;5.47;4.97;;;;;;;12.92;98.31;149286.72;5112937;28;20210;-58
2022/10/17 02:03:04;;;;;;;4.90;4.70;;;;;;;12.88;98.33;149276.56;5115125;28;20211;-58
2022/10/17 02:05:35;;;;;;;4.93;4.63;;;;;;;13.05;97.97;149319.63;5115612;28;20183;-58
2022/10/17 02:08:02;;;;;;;4.30;4.10;;;;;;;13.01;98.21;149308.25;5115032;28;20219;-58
2022/10/17 02:10:35;;;;;;;6.27;4.97;;;;;;;13.00;98.59;149306.97;5115283;28;20630;-58
2022/10/17 02:13:09;;;;;;;5.00;4.67;;;;;;;12.86;99.05;149271.50;5114847;28;20230;-57
2022/10/17 02:15:58;;;;;;;5.07;4.67;;;;;;;12.90;99.41;149281.63;5115161;28;20630;-59
2022/10/17 02:18:46;;;;;;;5.37;4.90;;;;;;;12.98;98.26;149301.91;5114773;28;20190;-58
2022/10/17 02:21:22;;;;;;;4.90;4.60;;;;;;;12.85;98.80;149267.72;5114703;28;20235;-58
2022/10/17 02:23:55;;;;;;;8.90;5.00;;;;;;;12.85;99.00;149269.00;5114711;28;20187;-59
2022/10/17 02:26:28;;;;;;;6.63;4.80;;;;;;;12.82;99.66;149261.34;5114649;28;20194;-57
2022/10/17 02:29:06;;;;;;;4.87;4.63;;;;;;;12.83;100.00;149263.91;5114659;28;20187;-58
2022/10/17 02:31:38;;;;;;;5.17;4.87;;;;;;;12.74;100.00;149242.38;5114528;28;20186;-58
2022/10/17 02:34:09;;;;;;;5.57;5.20;;;;;;;12.78;98.99;149252.50;5114923;28;20709;-58
2022/10/17 02:36:40;;;;;;;5.10;4.80;;;;;;;12.82;99.72;149261.34;5114472;28;20194;-58
2022/10/17 02:39:09;;;;;;;5.20;4.90;;;;;;;13.00;98.99;149306.97;5114784;28;20550;-58
2022/10/17 02:41:38;;;;;;;5.03;4.63;;;;;;;12.90;97.87;149280.41;5114268;28;20209;-58
2022/10/17 02:44:07;;;;;;;5.27;4.97;;;;;;;13.03;97.79;149314.53;5114233;28;20183;-59
2022/10/17 02:46:35;;;;;;;4.77;4.37;;;;;;;13.04;98.33;149317.09;5114594;28;20634;-58
2022/10/17 02:49:12;;;;;;;4.53;4.33;;;;;;;13.01;99.40;149309.50;5114199;28;20186;-59
2022/10/17 02:51:48;;;;;;;4.33;4.03;;;;;;;12.95;100.00;149294.28;5114211;28;20187;-59
2022/10/17 02:54:20;;;;;;;5.43;4.80;;;;;;;12.92;100.00;149286.72;5114099;28;20278;-59
2022/10/17 02:56:53;;;;;;;5.00;4.20;;;;;;;13.00;100.00;149306.97;5114558;28;20231;-58
2022/10/17 02:59:22;;;;;;;4.67;4.37;;;;;;;13.00;100.00;149306.97;5113968;28;20278;-59
2022/10/17 03:01:52;;;;;;;4.20;4.00;;;;;;;13.00;100.00;149306.97;5114210;28;20261;-58
2022/10/17 03:04:20;;;;;;;4.23;3.90;;;;;;;13.10;100.00;149332.38;5114264;28;20196;-59
2022/10/17 03:06:48;;;;;;;5.83;4.40;;;;;;;12.96;100.00;149296.84;5114390;28;20205;-59
2022/10/17 03:09:15;;;;;;;7.00;4.10;;;;;;;12.97;100.00;149299.38;5114259;28;20179;-58
2022/10/17 03:11:42;;;;;;;4.30;4.00;;;;;;;12.80;100.00;149256.31;5113595;28;20648;-59
2022/10/17 03:14:09;;;;;;;4.23;3.90;;;;;;;12.91;100.00;149282.88;5113991;28;20531;-58
2022/10/17 03:16:36;;;;;;;4.73;4.33;;;;;;;12.82;100.00;149261.34;5113952;28;20710;-58
2022/10/17 03:19:03;;;;;;;4.73;4.43;;;;;;;12.84;100.00;149266.44;5113604;28;20269;-59
2022/10/17 03:21:32;;;;;;;4.63;4.33;;;;;;;12.83;100.00;149265.19;5113439;28;20679;-59
2022/10/17 03:23:59;;;;;;;8.07;4.00;;;;;;;12.90;100.00;149280.41;5114079;28;20183;-58
2022/10/17 03:26:29;;;;;;;6.43;4.57;;;;;;;12.81;100.00;149258.88;5113504;28;20179;-58
2022/10/17 03:28:56;;;;;;;4.30;3.90;;;;;;;12.73;100.00;149238.59;5113469;28;20188;-59
2022/10/17 03:31:23;;;;;;;7.37;4.57;;;;;;;12.93;100.00;149287.97;5113755;28;20184;-59
2022/10/17 03:33:50;;;;;;;5.10;4.10;;;;;;;12.97;100.00;149299.38;5113373;28;20190;-58
2022/10/17 03:36:18;;;;;;;8.53;4.23;;;;;;;13.01;100.00;149308.25;5113275;28;20223;-58
2022/10/17 03:38:47;;;;;;;4.50;4.10;;;;;;;12.95;100.00;149294.28;5113585;28;20531;-59
2022/10/17 03:41:14;;;;;;;4.63;3.97;;;;;;;12.90;100.00;149280.41;5113289;28;20183;-58
2022/10/17 03:43:41;;;;;;;4.27;3.90;;;;;;;13.07;100.00;149323.44;5113409;28;20211;-57
2022/10/17 03:46:08;;;;;;;4.73;3.57;;;;;;;13.13;100.00;149339.94;5113338;28;20576;-59
2022/10/17 03:48:35;;;;;;;3.97;3.60;;;;;;;13.26;100.00;149371.63;5113355;28;20188;-59
2022/10/17 03:51:04;;;;;;;4.17;3.97;;;;;;;13.26;100.00;149372.88;5113544;28;20243;-58
2022/10/17 03:53:31;;;;;;;3.60;3.37;;;;;;;13.24;100.00;149366.53;5113369;28;20279;-58
2022/10/17 03:56:09;;;;;;;4.07;3.43;;;;;;;13.40;100.00;149405.81;5113206;28;20188;-58
2022/10/17 03:58:36;;;;;;;3.53;3.33;;;;;;;13.34;100.00;149391.88;5112949;28;20220;-58
2022/10/17 04:01:04;;;;;;;3.30;3.00;;;;;;;13.45;100.00;149418.50;5112800;28;20187;-58
2022/10/17 04:03:31;;;;;;;3.90;3.60;;;;;;;13.39;100.00;149403.28;5112664;28;20294;-59
2022/10/17 04:05:59;;;;;;;4.23;3.80;;;;;;;13.25;100.00;149369.06;5113140;28;20198;-58
2022/10/17 04:08:25;;;;;;;15.00;4.23;;;;;;;13.33;100.00;149388.06;5112664;28;20191;-58
2022/10/17 04:10:52;;;;;;;6.20;4.20;;;;;;;13.17;100.00;149350.06;5112888;28;20565;-58
2022/10/17 04:13:21;;;;;;;4.20;3.87;;;;;;;13.31;100.00;149384.28;5112882;28;20186;-58
2022/10/17 04:15:54;;;;;;;4.57;4.27;;;;;;;13.26;100.00;149371.63;5112608;28;20183;-59
2022/10/17 04:18:21;;;;;;;4.07;3.87;;;;;;;13.14;100.00;149341.22;5112729;28;20191;-59
2022/10/17 04:20:48;;;;;;;8.07;4.47;;;;;;;12.77;100.00;149249.97;5112754;28;20600;-59
2022/10/17 04:23:15;;;;;;;8.57;4.50;;;;;;;13.16;100.00;149347.53;5111904;28;20209;-58
2022/10/17 04:25:42;;;;;;;8.40;4.53;;;;;;;13.06;100.00;149322.19;5112685;28;20545;-57
2022/10/17 04:28:09;;;;;;;4.23;3.83;;;;;;;13.02;100.00;149312.06;5112308;28;20194;-58
2022/10/17 04:30:38;;;;;;;6.77;4.07;;;;;;;12.90;100.00;149281.63;5112674;28;20641;-57
2022/10/17 04:33:05;;;;;;;6.80;4.27;;;;;;;13.11;100.00;149334.84;5112242;28;20183;-58
2022/10/17 04:35:32;;;;;;;4.87;4.33;;;;;;;13.18;100.00;149352.63;5112465;28;20275;-58
2022/10/17 04:37:59;;;;;;;4.47;4.17;;;;;;;13.17;100.00;149350.06;5112269;28;20187;-58
2022/10/17 04:40:26;;;;;;;9.73;4.53;;;;;;;13.11;100.00;149333.63;5112337;28;20189;-58
2022/10/17 04:42:53;;;;;;;10.23;4.37;;;;;;;13.06;100.00;149322.19;5112137;28;20204;-59
2022/10/17 04:45:22;;;;;;;9.90;4.20;;;;;;;12.75;100.00;149244.91;5112183;28;20274;-58
2022/10/17 04:47:50;;;;;;;4.47;3.93;;;;;;;12.98;100.00;149300.66;5112133;28;20194;-58
2022/10/17 04:50:17;;;;;;;4.50;4.10;;;;;;;12.98;100.00;149300.66;5112424;28;20578;-58
2022/10/17 04:52:44;;;;;;;4.20;3.90;;;;;;;13.01;100.00;149309.50;5112174;28;20187;-58
2022/10/17 04:55:11;;;;;;;4.80;3.57;;;;;;;12.98;100.00;149301.91;5112062;28;20191;-57
2022/10/17 04:57:38;;;;;;;8.50;4.93;;;;;;;13.06;100.00;149320.91;5112078;28;20183;-57
2022/10/17 05:00:05;;;;;;;8.70;4.07;;;;;;;12.93;100.00;149289.25;5112317;28;20192;-58
2022/10/17 05:02:32;;;;;;;7.40;4.70;;;;;;;13.09;100.00;149329.78;5111938;28;20243;-59
2022/10/17 05:05:00;;;;;;;7.97;4.00;;;;;;;13.16;100.00;149347.53;5112071;28;20180;-58
2022/10/17 05:07:28;;;;;;;7.80;3.83;;;;;;;13.21;100.00;149360.22;5112304;28;20550;-58
2022/10/17 05:09:55;;;;;;;3.77;3.57;;;;;;;13.30;100.00;149381.75;5112212;28;20183;-59
2022/10/17 05:12:22;;;;;;;3.90;3.70;;;;;;;13.33;100.00;149388.06;5112146;28;20186;-58
2022/10/17 05:14:49;;;;;;;8.27;3.53;;;;;;;13.40;100.00;149405.81;5111922;28;20189;-59
2022/10/17 05:17:16;;;;;;;3.60;3.30;;;;;;;13.41;100.00;149408.38;5111804;28;20192;-53
2022/10/17 05:19:42;;;;;;;5.93;3.00;;;;;;;13.56;100.00;149446.34;5112112;28;20200;-58
2022/10/17 05:22:11;;;;;;;7.00;3.70;;;;;;;13.61;100.00;149459.03;5111673;28;20235;-59
2022/10/17 05:24:38;;;;;;;3.87;3.53;;;;;;;13.58;100.00;149451.41;5112142;28;20187;-59
2022/10/17 05:27:04;;;;;;;6.03;4.00;;;;;;;13.58;100.00;149451.41;5111900;28;20187;-59
2022/10/17 05:29:34;;;;;;;7.17;3.40;;;;;;;13.63;100.00;149464.09;5112063;28;20188;-59
2022/10/17 05:32:00;;;;;;;8.40;3.40;;;;;;;13.66;100.00;149471.72;5111885;28;20194;-58
2022/10/17 05:34:27;;;;;;;6.17;3.43;;;;;;;13.80;100.00;149505.88;5112831;28;20188;-58
2022/10/17 05:36:54;;;;;;;4.90;3.53;;;;;;;13.70;100.00;149483.13;5115643;28;20194;-58
2022/10/17 05:39:23;;;;;;;5.03;3.60;;;;;;;13.47;100.00;149423.53;5115656;28;20215;-58
2022/10/17 05:41:51;;;;;;;7.03;3.37;;;;;;;14.00;100.00;149557.84;5115497;28;20630;-59
2022/10/17 05:44:18;;;;;;;18.77;15.07;;;;;;;14.07;100.00;149575.63;5115129;28;20294;-58
2022/10/17 05:46:45;;;;;;;56.03;32.67;;;;;;;14.15;100.00;149595.91;5115306;28;20225;-59
2022/10/17 05:49:12;;;;;;;98.97;69.67;;;;;;;14.22;100.00;149611.09;5115099;28;20236;-59
2022/10/17 05:51:39;;;;;;;5.20;3.40;;;;;;;14.26;100.00;149621.28;5115687;28;20680;-59
2022/10/17 05:54:07;;;;;;;4.63;3.57;;;;;;;14.40;100.00;149656.78;5115473;28;20575;-59
2022/10/17 05:56:36;;;;;;;3.67;3.37;;;;;;;14.43;100.00;149664.38;5114236;28;20184;-58
2022/10/17 05:59:03;;;;;;;6.10;3.63;;;;;;;14.46;100.00;149672.03;5096823;28;20565;-58
2022/10/17 06:01:30;;;;;;;4.03;3.63;;;;;;;14.63;100.00;149715.13;5115087;28;20240;-58
2022/10/17 06:03:57;;;;;;;9.63;3.60;;;;;;;14.82;100.00;149763.31;5113765;28;20199;-59
2022/10/17 06:06:24;;;;;;;3.57;3.37;;;;;;;14.98;100.00;149803.88;5115103;28;20192;-58
2022/10/17 06:08:52;;;;;;;7.97;3.50;;;;;;;15.00;100.00;149808.97;5114804;28;20187;-58
2022/10/17 06:11:19;;;;;;;9.70;3.40;;;;;;;15.15;100.00;149844.50;5115380;28;20217;-61
2022/10/17 06:13:47;;;;;;;5.40;3.50;;;;;;;15.20;100.00;149857.16;5114811;28;20290;-59
2022/10/17 06:16:14;;;;;;;7.53;3.90;;;;;;;15.15;100.00;149845.75;5114694;28;20244;-58
2022/10/17 06:18:42;;;;;;;9.10;3.93;;;;;;;15.54;100.00;149944.75;5114646;28;20183;-59
2022/10/17 06:21:10;;;;;;;5.77;3.40;;;;;;;15.62;100.00;149963.78;5096586;28;20323;-59
2022/10/17 06:23:37;;;;;;;10.27;4.07;;;;;;;15.95;100.00;150046.31;5114645;28;20290;-59
2022/10/17 06:26:06;;;;;;;10.63;3.97;;;;;;;16.14;100.00;150093.25;5114359;28;20284;-59
2022/10/17 06:28:34;;;;;;;11.77;3.97;;;;;;;16.49;100.00;150180.88;5114506;28;20183;-59
2022/10/17 06:31:06;;;;;;;9.67;4.10;;;;;;;16.85;100.00;150272.34;5114592;28;20195;-59
2022/10/17 06:33:34;;;;;;;8.73;3.80;;;;;;;17.04;100.00;150320.63;5114204;28;20180;-59
2022/10/17 06:36:02;;;;;;;5.43;3.73;;;;;;;17.46;100.00;150426.09;5114315;28;20266;-58
2022/10/17 06:38:29;;;;;;;18.33;12.40;;;;;;;17.94;100.00;150545.63;5114297;28;20222;-59
2022/10/17 06:41:03;;;;;;;14.53;10.20;;;;;;;18.54;100.00;150698.22;5114397;28;20192;-60
2022/10/17 06:43:30;;;;;;;4.30;3.90;;;;;;;18.92;99.56;150792.38;5114128;28;20256;-60
2022/10/17 06:45:57;;;;;;;4.13;3.73;;;;;;;19.41;95.42;150915.75;5113132;28;20187;-61
2022/10/17 06:48:26;;;;;;;9.83;3.63;;;;;;;19.84;94.84;151024.00;5114200;28;20194;-61
2022/10/17 06:50:52;;;;;;;4.73;3.30;;;;;;;20.18;88.53;151110.59;5113722;28;20267;-61
2022/10/17 06:53:20;;;;;;;5.30;3.70;;;;;;;20.51;87.17;151194.66;5113811;28;20232;-60
2022/10/17 06:55:51;;;;;;;3.88;3.50;;;;;;;20.70;84.79;151241.81;5113819;28;20183;-60
2022/10/17 06:58:18;;;;;;;4.68;4.25;;;;;;;21.00;82.28;151315.69;5113748;28;20183;-62
2022/10/17 07:00:45;;;;;;;3.88;3.58;;;;;;;21.35;81.05;151406.16;5113733;28;20183;-62
2022/10/17 07:03:12;;;;;;;7.07;3.92;;;;;;;21.70;77.62;151492.84;5113966;28;20247;-61
2022/10/17 07:05:40;;;;;;;9.30;3.70;;;;;;;22.07;75.56;151587.22;5113761;28;20191;-61
2022/10/17 07:08:08;;;;;;;6.43;4.18;;;;;;;21.68;76.86;151487.75;5113897;28;20180;-61
2022/10/17 07:10:37;;;;;;;5.18;4.00;;;;;;;22.23;75.24;151628.06;5113881;28;20183;-61
2022/10/17 07:13:09;;;;;;;11.57;4.93;;;;;;;22.58;75.28;151716.00;5113570;28;20645;-61
2022/10/17 07:15:37;;;;;;;10.82;4.30;;;;;;;22.30;77.45;151645.88;5113630;28;20184;-62
2022/10/17 07:18:04;;;;;;;4.32;3.75;;;;;;;22.40;76.70;151668.84;5113952;28;20179;-61
2022/10/17 07:20:32;;;;;;;9.55;4.72;;;;;;;22.37;75.13;151661.16;5113491;28;20313;-62
2022/10/17 07:23:00;;;;;;;7.78;3.92;;;;;;;22.67;75.05;151738.97;5113666;28;20257;-61
2022/10/17 07:25:28;;;;;;;5.60;3.58;;;;;;;23.19;72.74;151870.41;5113685;28;20274;-61
2022/10/17 07:27:55;;;;;;;4.18;3.88;;;;;;;23.37;71.42;151915.09;5113224;28;20183;-62
2022/10/17 07:30:23;;;;;;;4.25;3.85;;;;;;;24.06;69.76;152088.72;5113496;28;20258;-62
2022/10/17 07:32:53;;;;;;;4.40;3.35;;;;;;;24.77;65.74;152268.81;5113576;28;20186;-62
2022/10/17 07:35:20;;;;;;;4.57;3.50;;;;;;;23.57;68.58;151964.91;5113275;28;20180;-61
2022/10/17 07:37:47;;;;;;;3.83;3.53;;;;;;;23.36;71.21;151911.25;5113388;28;20179;-61
2022/10/17 07:40:16;;;;;;;11.52;4.00;;;;;;;23.78;69.87;152018.50;5113394;28;20709;-61
2022/10/17 07:42:43;;;;;;;5.03;3.17;;;;;;;22.85;73.70;151782.38;5113106;28;20184;-61
2022/10/17 07:45:10;;;;;;;3.53;3.42;;;;;;;23.47;72.08;151940.63;5113058;28;20274;-62
2022/10/17 07:47:37;;;;;;;6.03;3.90;;;;;;;24.12;68.97;152105.31;5112954;28;20194;-62
2022/10/17 07:50:05;;;;;;;4.57;3.45;;;;;;;23.88;67.90;152042.75;5112940;28;20194;-62
2022/10/17 07:52:32;;;;;;;4.85;3.90;;;;;;;24.39;64.83;152171.75;5118209;27;20191;-60
2022/10/17 07:54:59;;;;;;;3.63;3.42;;;;;;;24.47;64.33;152192.19;5112997;28;20211;-63
2022/10/17 07:57:27;;;;;;;5.45;3.53;;;;;;;23.86;67.46;152037.63;5112748;28;20602;-62
2022/10/17 07:59:54;;;;;;;5.55;4.00;;;;;;;24.13;67.87;152107.88;5113029;28;20184;-61
2022/10/17 08:02:23;;;;;;;4.25;3.45;;;;;;;23.93;66.92;152056.75;5113090;28;20194;-62
2022/10/17 08:04:50;;;;;;;3.72;3.47;;;;;;;23.67;68.03;151991.72;5112860;28;20226;-60
2022/10/17 08:07:18;;;;;;;3.58;3.28;;;;;;;22.90;71.84;151796.44;5112487;28;20241;-61
2022/10/17 08:09:46;;;;;;;4.35;3.58;;;;;;;22.58;74.59;151714.72;5112913;28;20638;-63
2022/10/17 08:12:14;;;;;;;3.25;2.92;;;;;;;23.41;71.98;151924.00;5113187;28;20187;-62
2022/10/17 08:14:43;;;;;;;3.65;3.47;;;;;;;24.72;65.60;152256.03;5111231;28;20190;-62
2022/10/17 08:17:10;;;;;;;3.75;3.55;;;;;;;24.06;69.17;152089.97;5113029;28;20188;-60
2022/10/17 08:19:39;;;;;;;3.70;3.40;;;;;;;23.90;68.16;152049.13;5112717;28;20199;-62
2022/10/17 08:22:07;;;;;;;3.38;3.15;;;;;;;23.29;70.66;151893.41;5130827;27;20573;-60
2022/10/17 08:24:34;;;;;;;3.55;3.30;;;;;;;23.78;70.00;152018.50;5132570;27;20226;-62
2022/10/17 08:27:02;;;;;;;3.03;2.83;;;;;;;24.81;65.22;152279.03;5133447;27;20652;-62
2022/10/17 08:29:31;;;;;;;2.90;2.60;;;;;;;23.77;65.20;152015.94;5133088;27;20187;-61
2022/10/17 08:32:00;;;;;;;3.58;3.08;;;;;;;22.36;74.93;151659.94;5114667;27;20198;-62
2022/10/17 08:34:26;;;;;;;3.47;3.30;;;;;;;21.84;79.03;151529.81;5131734;27;20274;-61
2022/10/17 08:36:53;;;;;;;5.03;3.33;;;;;;;22.14;81.40;151605.09;5133610;27;20515;-60
2022/10/17 08:39:21;;;;;;;3.35;3.05;;;;;;;21.89;81.29;151541.31;5133371;27;20214;-60
2022/10/17 08:42:14;;;;;;;3.75;3.28;;;;;;;21.70;87.83;151492.84;5132321;27;20229;-59
2022/10/17 08:44:52;;;;;;;3.80;3.60;;;;;;;23.71;76.54;151999.38;5132734;27;20206;-61
2022/10/17 08:47:27;;;;;;;5.07;2.78;;;;;;;24.68;66.75;152244.53;5132877;27;20179;-59
2022/10/17 08:49:58;;;;;;;3.00;2.80;;;;;;;22.98;72.19;151815.56;5132655;27;20182;-62
2022/10/17 08:52:34;;;;;;;4.53;2.90;;;;;;;22.07;78.12;151587.22;5133207;28;20615;-60
2022/10/17 08:55:02;;;;;;;3.55;3.10;;;;;;;22.65;76.47;151732.59;5133147;28;20605;-60
2022/10/17 08:57:29;;;;;;;5.13;2.92;;;;;;;22.09;79.70;151591.06;5132686;28;20179;-61
2022/10/17 08:59:57;;;;;;;3.42;3.22;;;;;;;23.42;74.23;151926.56;5114506;28;20210;-59
2022/10/17 09:02:46;;;;;;;3.20;3.00;;;;;;;23.22;72.43;151878.06;5132925;28;20510;-60
2022/10/17 09:05:37;;;;;;;3.05;2.85;;;;;;;23.50;71.94;151947.03;5132379;28;20249;-61
2022/10/17 09:08:16;;;;;;;3.45;3.15;;;;;;;25.95;62.67;152566.63;5132855;28;20187;-61
2022/10/17 09:10:54;;;;;;;3.40;3.20;;;;;;;25.68;58.84;152498.84;5136089;27;20277;-60
2022/10/17 09:13:39;;;;;;;4.18;2.60;;;;;;;22.46;69.86;151684.13;5137050;27;20186;-59
2022/10/17 09:16:17;;;;;;;5.55;3.45;;;;;;;22.73;71.50;151754.34;5136520;27;20175;-60
2022/10/17 09:18:54;;;;;;;2.33;2.22;;;;;;;20.86;81.66;151281.28;5119785;27;20641;-59
2022/10/17 09:21:25;;;;;;;3.25;2.47;;;;;;;21.75;78.89;151506.88;5136361;27;20322;-60
2022/10/17 09:23:56;;;;;;;2.63;2.42;;;;;;;22.65;74.99;151732.59;5136810;27;20224;-60
2022/10/17 09:26:24;;;;;;;6.10;2.83;;;;;;;23.29;69.79;151894.69;5139205;27;20186;-60
2022/10/17 09:28:54;;;;;;;3.00;2.90;;;;;;;23.12;71.34;151851.28;5155991;27;20189;-61
2022/10/17 09:31:25;;;;;;;2.80;2.70;;;;;;;23.41;71.29;151924.00;5155887;27;20205;-59
2022/10/17 09:33:57;;;;;;;3.13;2.85;;;;;;;24.44;66.58;152184.53;5156028;27;20186;-60
2022/10/17 09:36:28;;;;;;;3.22;2.90;;;;;;;21.84;77.51;151528.53;5155770;27;20186;-60
2022/10/17 09:38:58;;;;;;;4.15;3.00;;;;;;;21.76;80.45;151508.16;5137717;27;20210;-60
2022/10/17 09:41:35;;;;;;;4.22;2.65;;;;;;;22.13;80.75;151602.53;5156186;27;20178;-60
2022/10/17 09:44:16;;;;;;;2.83;2.42;;;;;;;23.47;73.55;151939.34;5138519;27;20212;-60
2022/10/17 09:46:53;;;;;;;2.85;2.65;;;;;;;23.86;69.28;152037.63;5155785;27;20190;-60
2022/10/17 09:49:29;;;;;;;11.73;3.45;;;;;;;22.74;73.13;151755.63;5155701;27;20181;-60
2022/10/17 09:51:56;;;;;;;2.42;2.30;;;;;;;22.00;77.23;151568.09;5152300;27;20180;-60
2022/10/17 09:54:28;;;;;;;3.20;2.90;;;;;;;23.18;77.05;151867.84;5137587;27;20280;-60
2022/10/17 09:57:01;;;;;;;2.90;2.70;;;;;;;24.40;66.01;152174.31;5155732;27;20559;-61
2022/10/17 09:59:33;;;;;;;2.25;2.15;;;;;;;24.72;62.26;152254.75;5150303;27;20185;-62
2022/10/17 10:02:09;;;;;;;3.67;2.47;;;;;;;25.03;62.73;152334.00;5153319;27;20281;-60
2022/10/17 10:04:51;;;;;;;3.20;2.50;;;;;;;24.75;62.83;152262.41;5144045;27;20206;-60
2022/10/17 10:07:19;;;;;;;3.08;2.20;;;;;;;24.24;63.19;152133.44;5142067;27;20571;-59
2022/10/17 10:09:47;;;;;;;9.90;2.63;;;;;;;24.18;66.54;152118.13;5140414;27;20194;-61
2022/10/17 10:12:19;;;;;;;6.35;3.20;;;;;;;24.39;64.68;152171.75;5144856;27;20268;-60
2022/10/17 10:14:46;;;;;;;5.20;2.67;;;;;;;24.34;65.55;152158.97;5137892;27;20212;-60
2022/10/17 10:17:28;;;;;;;2.45;2.35;;;;;;;24.49;65.26;152197.25;5135530;27;20277;-59
2022/10/17 10:19:56;;;;;;;5.45;5.00;;;;;;;23.84;66.56;152033.84;5135685;27;20202;-60
2022/10/17 10:22:23;;;;;;;3.08;2.88;;;;;;;23.45;69.54;151934.28;5134319;27;20577;-58
2022/10/17 10:25:13;;;;;;;2.58;2.38;;;;;;;23.93;67.66;152055.53;5135237;27;20577;-60
2022/10/17 10:27:41;;;;;;;7.57;3.40;;;;;;;23.72;66.65;152003.16;5135002;27;20182;-60
2022/10/17 10:30:18;;;;;;;2.88;2.63;;;;;;;24.06;64.48;152088.72;5116692;27;20595;-59
2022/10/17 10:32:49;;;;;;;9.60;2.55;;;;;;;24.15;61.28;152111.72;5135252;27;20633;-59
2022/10/17 10:35:23;;;;;;;2.97;2.70;;;;;;;23.08;64.63;151842.38;5134774;27;20256;-59
2022/10/17 10:37:52;;;;;;;2.85;2.65;;;;;;;23.72;65.68;152003.16;5134899;27;20663;-59
2022/10/17 10:40:23;;;;;;;2.40;2.17;;;;;;;25.50;60.18;152452.84;5134630;27;20185;-60
2022/10/17 10:42:52;;;;;;;2.28;2.17;;;;;;;25.89;56.77;152552.53;5135069;27;20218;-59
2022/10/17 10:45:22;;;;;;;4.50;2.78;;;;;;;25.16;58.06;152365.94;5134505;27;20228;-60
2022/10/17 10:47:51;;;;;;;2.83;2.63;;;;;;;23.67;61.08;151990.44;5134903;27;20209;-59
2022/10/17 10:50:27;;;;;;;3.90;3.35;;;;;;;21.66;69.31;151482.66;5134536;27;20183;-59
2022/10/17 10:53:06;;;;;;;2.47;2.38;;;;;;;21.50;72.81;151441.88;5134690;27;20194;-61
2022/10/17 10:55:37;;;;;;;4.22;3.90;;;;;;;22.11;70.66;151596.13;5134496;27;20183;-59
2022/10/17 10:58:26;;;;;;;3.53;2.88;;;;;;;24.83;63.23;152282.84;5134310;27;20183;-61
2022/10/17 11:00:55;;;;;;;4.28;2.42;;;;;;;23.60;61.72;151972.53;5134393;27;20191;-59
2022/10/17 11:03:31;;;;;;;6.68;2.80;;;;;;;23.31;63.61;151898.47;5134264;27;20194;-59
2022/10/17 11:06:05;;;;;;;4.57;2.95;;;;;;;21.53;70.18;151450.78;5116475;27;20213;-60
2022/10/17 11:08:38;;;;;;;3.15;2.78;;;;;;;21.83;72.98;151527.25;5134557;27;20178;-60
2022/10/17 11:11:17;;;;;;;3.97;3.00;;;;;;;21.83;72.87;151526.00;5134072;27;20273;-59
2022/10/17 11:13:49;;;;;;;4.65;3.33;;;;;;;21.02;77.43;151320.75;5134017;27;20189;-59
2022/10/17 11:16:26;;;;;;;3.05;2.50;;;;;;;20.81;80.38;151268.53;5133994;27;20179;-58
2022/10/17 11:19:02;;;;;;;5.25;2.97;;;;;;;20.57;83.87;151207.41;5134113;27;20182;-59
2022/10/17 11:21:42;;;;;;;4.82;2.58;;;;;;;20.80;84.26;151265.97;5134338;27;20225;-60
2022/10/17 11:24:16;;;;;;;2.95;2.85;;;;;;;20.84;83.91;151277.44;5133874;27;20189;-60
2022/10/17 11:26:55;;;;;;;3.00;2.90;;;;;;;20.58;84.33;151209.97;5133870;27;20192;-60
2022/10/17 11:29:27;;;;;;;4.40;3.40;;;;;;;20.42;86.18;151171.72;5134165;27;20560;-60
2022/10/17 11:31:59;;;;;;;3.63;3.33;;;;;;;20.62;86.77;151220.16;5133200;27;20191;-60
2022/10/17 11:34:31;;;;;;;3.17;2.97;;;;;;;20.36;86.96;151156.47;5133944;27;20333;-60
2022/10/17 11:37:05;;;;;;;4.03;3.13;;;;;;;20.67;85.86;151234.13;5133646;27;20273;-59